Time;durP1;ratioP1;P1;durP2;ratioP2;P2;SDS_P1;SDS_P2;PMS_P1;PMS_P2;Temp;Humidity;BMP_temperature;BMP_pressure;BME280_temperature;BME280_humidity;BME280_pressure;Samples;Min_cycle;Max_cycle;Signal;HPM_P1;HPM_P2
2022/03/01 00:01:44;;;;;;;7.10;4.90;;;;;;;4.26;46.51;101466.98;117351;1183;22860;-53
2022/03/01 00:04:12;;;;;;;7.70;5.20;;;;;;;4.27;46.44;101462.50;117328;1185;21928;-57
2022/03/01 00:06:41;;;;;;;7.80;5.60;;;;;;;4.28;46.44;101458.36;117484;1184;21907;-57
2022/03/01 00:09:09;;;;;;;7.50;4.80;;;;;;;4.29;46.41;101454.92;117323;1185;21850;-56
2022/03/01 00:11:38;;;;;;;8.80;5.40;;;;;;;4.27;46.47;101455.04;117366;1185;22930;-55
2022/03/01 00:14:07;;;;;;;7.50;5.60;;;;;;;4.28;46.27;101454.85;117332;1186;23577;-56
2022/03/01 00:16:47;;;;;;;7.10;5.20;;;;;;;4.28;46.43;101445.66;117274;1185;22172;-53
2022/03/01 00:19:16;;;;;;;7.00;5.00;;;;;;;4.27;46.41;101445.97;117379;1186;22977;-57
2022/03/01 00:21:44;;;;;;;6.60;5.10;;;;;;;4.24;46.31;101438.77;117351;1185;21849;-53
2022/03/01 00:24:12;;;;;;;8.90;5.50;;;;;;;4.22;46.42;101435.04;117252;1182;21953;-53
2022/03/01 00:26:41;;;;;;;7.00;5.00;;;;;;;4.22;46.33;101433.14;117348;1185;21845;-54
2022/03/01 00:29:09;;;;;;;9.30;5.50;;;;;;;4.23;46.38;101428.13;117403;1180;21921;-52
2022/03/01 00:31:38;;;;;;;7.20;5.00;;;;;;;4.24;46.39;101427.11;117395;1182;21837;-56
2022/03/01 00:34:06;;;;;;;8.80;5.20;;;;;;;4.23;46.45;101419.44;117323;1185;23380;-57
2022/03/01 00:36:36;;;;;;;15.00;8.20;;;;;;;4.21;46.34;101410.88;117383;1176;21889;-57
2022/03/01 00:39:05;;;;;;;10.10;5.40;;;;;;;4.20;46.46;101403.03;117348;1185;21860;-53
2022/03/01 00:41:33;;;;;;;7.50;5.60;;;;;;;4.16;46.39;101394.39;117304;1185;21903;-52
2022/03/01 00:44:02;;;;;;;6.70;4.70;;;;;;;4.06;46.59;101393.59;117334;1185;21935;-52
2022/03/01 00:46:31;;;;;;;6.70;4.90;;;;;;;4.04;46.54;101394.20;117390;1183;22944;-56
2022/03/01 00:48:59;;;;;;;7.90;5.40;;;;;;;4.03;46.59;101395.91;117356;1183;22581;-53
2022/03/01 00:51:28;;;;;;;8.60;5.00;;;;;;;4.02;46.64;101397.80;117286;1182;21909;-56
2022/03/01 00:54:07;;;;;;;8.30;5.00;;;;;;;4.01;46.82;101398.13;117286;1185;23450;-56
2022/03/01 00:56:36;;;;;;;9.00;5.70;;;;;;;4.03;46.77;101400.42;117308;1183;22312;-56
2022/03/01 00:59:08;;;;;;;7.50;5.20;;;;;;;4.05;46.74;101393.70;117280;1182;23251;-53
2022/03/01 01:01:36;;;;;;;6.80;4.80;;;;;;;4.08;46.68;101386.50;117425;1185;21852;-56
2022/03/01 01:04:05;;;;;;;7.30;5.10;;;;;;;4.10;46.75;101387.27;117359;1182;22709;-56
2022/03/01 01:06:34;;;;;;;8.50;5.80;;;;;;;4.10;46.87;101380.67;117337;1186;21845;-52
2022/03/01 01:09:03;;;;;;;8.30;5.80;;;;;;;4.06;46.83;101377.23;117307;1186;24136;-52
2022/03/01 01:11:31;;;;;;;9.00;6.10;;;;;;;4.03;46.63;101379.59;117388;1186;22909;-54
2022/03/01 01:14:00;;;;;;;8.00;6.10;;;;;;;4.04;46.98;101377.18;117401;1186;21843;-56
2022/03/01 01:16:28;;;;;;;10.00;6.40;;;;;;;4.06;46.71;101370.63;117285;1186;21836;-52
2022/03/01 01:18:57;;;;;;;8.10;5.90;;;;;;;4.06;46.95;101374.65;117396;1182;21882;-52
2022/03/01 01:22:39;;;;;;;9.00;6.00;;;;;;;4.05;46.89;101376.86;117334;1183;22612;-52
2022/03/01 01:24:14;;;;;;;9.00;6.50;;;;;;;4.02;46.86;101379.56;117399;1182;21858;-56
2022/03/01 01:26:44;;;;;;;8.40;6.40;;;;;;;3.99;46.87;101378.95;117396;1185;21875;-54
2022/03/01 01:29:15;;;;;;;9.80;6.30;;;;;;;3.98;46.93;101371.97;117394;1182;21911;-53
2022/03/01 01:31:43;;;;;;;10.00;6.30;;;;;;;3.98;46.94;101368.84;117503;1185;21895;-53
2022/03/01 01:34:11;;;;;;;9.80;6.50;;;;;;;4.00;46.97;101363.18;117354;1182;21856;-52
2022/03/01 01:36:41;;;;;;;9.30;6.10;;;;;;;4.01;46.96;101360.27;117377;1185;22901;-53
2022/03/01 01:39:09;;;;;;;9.70;6.60;;;;;;;4.02;46.98;101360.79;117410;1175;21878;-56
2022/03/01 01:41:38;;;;;;;9.20;6.00;;;;;;;4.02;47.12;101361.16;117400;1185;21903;-55
2022/03/01 01:44:07;;;;;;;8.30;5.90;;;;;;;4.02;47.01;101359.77;117406;1182;21941;-56
2022/03/01 01:46:35;;;;;;;7.90;5.30;;;;;;;4.02;46.92;101352.80;117390;1185;21848;-56
2022/03/01 01:49:04;;;;;;;8.30;5.60;;;;;;;4.02;47.03;101358.55;117313;1183;23534;-53
2022/03/01 01:51:32;;;;;;;9.50;6.60;;;;;;;4.04;47.13;101362.27;117284;1182;21839;-56
2022/03/01 01:54:00;;;;;;;8.10;5.70;;;;;;;4.05;47.12;101355.50;117358;1185;21839;-56
2022/03/01 01:56:28;;;;;;;6.90;5.00;;;;;;;4.07;47.07;101356.95;117365;1182;23426;-56
2022/03/01 01:58:57;;;;;;;8.10;5.40;;;;;;;4.10;46.92;101354.27;117166;1181;21934;-57
2022/03/01 02:01:25;;;;;;;9.00;6.20;;;;;;;4.09;47.14;101351.46;117368;1182;21849;-52
2022/03/01 02:03:54;;;;;;;10.90;5.80;;;;;;;4.09;47.13;101349.71;117360;1183;21963;-53
2022/03/01 02:06:27;;;;;;;9.80;6.50;;;;;;;4.07;47.01;101345.48;117325;1183;22914;-57
2022/03/01 02:08:56;;;;;;;8.00;6.00;;;;;;;4.08;47.06;101342.73;117402;1185;21882;-53
2022/03/01 02:11:27;;;;;;;10.80;7.10;;;;;;;4.09;46.95;101340.17;117297;1182;23448;-53
2022/03/01 02:13:55;;;;;;;9.20;6.10;;;;;;;4.08;47.05;101338.41;117315;1185;21857;-56
2022/03/01 02:16:24;;;;;;;8.20;6.10;;;;;;;4.09;46.92;101332.18;117392;1185;22292;-56
2022/03/01 02:18:54;;;;;;;8.30;6.00;;;;;;;4.09;46.92;101326.77;117405;1185;22107;-53
2022/03/01 02:21:22;;;;;;;10.60;6.70;;;;;;;4.06;46.90;101320.97;117004;1187;21868;-56
2022/03/01 02:23:51;;;;;;;9.90;6.40;;;;;;;4.03;47.18;101311.86;117423;1182;21909;-57
2022/03/01 02:26:19;;;;;;;8.20;5.10;;;;;;;4.02;47.01;101311.48;117463;1185;21859;-57
2022/03/01 02:28:48;;;;;;;8.60;6.10;;;;;;;4.02;47.08;101305.23;117234;1182;21853;-56
2022/03/01 02:31:16;;;;;;;10.60;6.20;;;;;;;3.98;47.03;101301.65;117350;1185;21853;-53
2022/03/01 02:33:45;;;;;;;8.70;5.80;;;;;;;3.94;46.89;101300.49;117503;1184;22981;-56
2022/03/01 02:36:14;;;;;;;8.20;6.30;;;;;;;3.94;47.09;101296.67;117294;1183;24153;-56
2022/03/01 02:38:42;;;;;;;9.20;6.10;;;;;;;3.94;47.10;101298.77;117261;1185;21847;-53
2022/03/01 02:41:10;;;;;;;8.30;5.60;;;;;;;3.94;47.25;101299.77;117275;1183;21964;-56
2022/03/01 02:43:38;;;;;;;8.40;6.10;;;;;;;3.95;46.95;101299.29;117218;1185;22924;-56
2022/03/01 02:46:06;;;;;;;8.40;6.10;;;;;;;3.95;47.11;101302.42;117392;1183;21845;-56
2022/03/01 02:48:36;;;;;;;11.70;7.00;;;;;;;3.95;47.32;101304.15;117324;1182;21902;-57
2022/03/01 02:51:05;;;;;;;8.70;6.00;;;;;;;3.98;47.26;101304.25;117274;1184;21833;-56
2022/03/01 02:53:34;;;;;;;10.00;6.70;;;;;;;4.00;47.17;101298.23;117457;1185;24146;-54
2022/03/01 02:56:04;;;;;;;8.90;6.50;;;;;;;4.00;47.11;101301.35;117404;1186;21890;-52
2022/03/01 02:58:32;;;;;;;10.40;6.90;;;;;;;4.01;47.15;101300.86;117388;1185;22643;-56
2022/03/01 03:01:00;;;;;;;14.30;8.80;;;;;;;4.03;47.27;101306.80;117275;1186;21860;-56
2022/03/01 03:03:29;;;;;;;14.70;9.20;;;;;;;4.04;47.16;101304.92;117384;1183;24136;-52
2022/03/01 03:05:59;;;;;;;13.60;8.50;;;;;;;4.02;47.13;101302.11;117388;1182;24126;-52
2022/03/01 03:08:27;;;;;;;13.50;8.60;;;;;;;4.01;47.36;101299.47;117350;1185;21867;-57
2022/03/01 03:10:55;;;;;;;11.10;7.60;;;;;;;3.99;47.21;101298.70;117355;1183;21848;-56
2022/03/01 03:13:24;;;;;;;11.00;6.90;;;;;;;4.01;47.45;101295.45;117317;1183;21846;-53
2022/03/01 03:15:52;;;;;;;10.00;6.60;;;;;;;4.04;47.48;101298.83;117346;1185;22902;-56
2022/03/01 03:18:21;;;;;;;10.70;6.90;;;;;;;4.05;47.40;101300.10;117282;1185;21887;-52
2022/03/01 03:20:50;;;;;;;8.60;6.30;;;;;;;4.06;47.18;101299.44;117307;1186;21961;-54
2022/03/01 03:23:18;;;;;;;10.90;7.20;;;;;;;4.03;47.43;101301.24;117343;1182;21849;-54
2022/03/01 03:25:47;;;;;;;9.30;6.30;;;;;;;4.04;47.28;101304.58;117223;1183;24141;-53
2022/03/01 03:28:15;;;;;;;9.10;5.90;;;;;;;4.11;47.32;101304.63;117347;1185;22711;-57
2022/03/01 03:30:43;;;;;;;8.80;6.20;;;;;;;4.12;47.27;101301.69;117329;1186;21862;-56
2022/03/01 03:33:16;;;;;;;8.80;6.30;;;;;;;4.11;47.25;101306.19;117353;1184;21847;-56
2022/03/01 03:35:44;;;;;;;8.50;6.00;;;;;;;4.02;47.38;101307.15;117347;1183;21926;-56
2022/03/01 03:38:13;;;;;;;8.40;5.70;;;;;;;4.01;47.60;101307.47;117342;1182;21849;-53
2022/03/01 03:40:42;;;;;;;8.90;5.80;;;;;;;4.01;47.66;101313.02;117403;1182;21876;-56
2022/03/01 03:43:10;;;;;;;9.40;6.40;;;;;;;4.03;47.52;101311.84;117447;1182;21846;-56
2022/03/01 03:45:39;;;;;;;8.70;6.10;;;;;;;4.01;47.51;101319.98;117375;1183;21823;-52
2022/03/01 03:48:08;;;;;;;9.40;6.20;;;;;;;4.03;47.59;101320.36;117313;1186;21857;-54
2022/03/01 03:50:36;;;;;;;8.00;5.70;;;;;;;4.05;47.56;101321.45;117366;1182;21848;-56
2022/03/01 03:53:04;;;;;;;9.60;6.50;;;;;;;4.07;47.53;101322.92;117479;1182;23623;-54
2022/03/01 03:55:33;;;;;;;7.60;5.70;;;;;;;4.10;47.70;101320.58;117363;1182;23587;-54
2022/03/01 03:58:01;;;;;;;9.00;6.00;;;;;;;4.12;47.64;101320.27;117421;1185;22931;-55
2022/03/01 04:00:30;;;;;;;8.50;6.00;;;;;;;4.13;47.59;101320.64;117271;1183;21932;-56
2022/03/01 04:03:03;;;;;;;11.60;6.10;;;;;;;4.15;47.69;101320.55;117372;1183;21856;-56
2022/03/01 04:05:32;;;;;;;15.50;6.20;;;;;;;4.18;47.68;101325.15;117346;1180;21836;-56
2022/03/01 04:08:00;;;;;;;12.40;6.70;;;;;;;4.19;47.66;101331.25;117269;1183;21861;-53
2022/03/01 04:10:29;;;;;;;11.20;7.30;;;;;;;4.19;47.59;101330.89;117355;1185;21854;-53
2022/03/01 04:13:00;;;;;;;9.20;6.60;;;;;;;4.18;47.51;101338.18;117386;1185;21891;-53
2022/03/01 04:15:28;;;;;;;9.40;6.60;;;;;;;4.19;47.58;101337.34;117338;1183;22486;-57
2022/03/01 04:17:57;;;;;;;11.90;6.20;;;;;;;4.21;47.69;101336.14;117351;1185;22620;-56
2022/03/01 04:20:26;;;;;;;9.20;6.80;;;;;;;4.21;47.70;101335.30;117356;1186;21867;-53
2022/03/01 04:22:54;;;;;;;12.70;6.80;;;;;;;4.23;47.53;101338.50;117238;1186;21851;-52
2022/03/01 04:25:22;;;;;;;10.40;6.40;;;;;;;4.28;47.89;101332.54;117381;1183;21898;-53
2022/03/01 04:27:51;;;;;;;9.40;5.90;;;;;;;4.30;47.80;101329.30;117264;1180;22913;-53
2022/03/01 04:30:19;;;;;;;10.30;6.80;;;;;;;4.32;47.75;101327.63;117266;1183;24651;-56
2022/03/01 04:32:47;;;;;;;11.80;7.10;;;;;;;4.33;47.69;101319.33;117299;1186;21849;-55
2022/03/01 04:35:15;;;;;;;10.30;6.40;;;;;;;4.33;47.61;101317.39;117379;1183;21845;-53
2022/03/01 04:37:44;;;;;;;12.70;6.50;;;;;;;4.36;47.95;101315.05;117419;1182;22652;-57
2022/03/01 04:40:14;;;;;;;10.30;6.60;;;;;;;4.40;47.63;101311.86;117387;1183;21847;-54
2022/03/01 04:42:42;;;;;;;16.80;6.90;;;;;;;4.39;47.65;101305.58;117249;1186;21861;-54
2022/03/01 04:45:11;;;;;;;13.30;6.90;;;;;;;4.38;47.67;101309.90;117333;1185;21890;-56
2022/03/01 04:47:40;;;;;;;13.20;6.90;;;;;;;4.37;47.59;101312.11;117350;1186;21848;-54
2022/03/01 04:50:11;;;;;;;14.60;6.70;;;;;;;4.35;47.73;101301.64;117317;1186;22641;-55
2022/03/01 04:52:40;;;;;;;11.60;6.20;;;;;;;4.31;47.66;101297.36;117380;1185;21854;-56
2022/03/01 04:55:09;;;;;;;10.90;6.20;;;;;;;4.27;47.65;101286.67;117358;1183;21846;-54
2022/03/01 04:57:37;;;;;;;9.90;5.70;;;;;;;4.25;47.68;101295.96;117348;1180;22914;-54
2022/03/01 05:00:10;;;;;;;9.00;5.90;;;;;;;4.25;47.69;101293.73;117287;1187;21834;-56
2022/03/01 05:02:44;;;;;;;9.00;5.30;;;;;;;4.26;47.78;101294.95;117309;1182;21858;-57
2022/03/01 05:05:13;;;;;;;16.80;6.20;;;;;;;4.25;47.86;101292.52;117336;1185;22842;-54
2022/03/01 05:07:43;;;;;;;14.90;6.90;;;;;;;4.25;47.73;101296.31;117334;1186;22672;-56
2022/03/01 05:10:11;;;;;;;8.40;6.00;;;;;;;4.25;47.76;101289.71;117259;1182;21851;-55
2022/03/01 05:12:52;;;;;;;12.70;6.10;;;;;;;4.25;47.68;101284.52;117308;1185;21857;-55
2022/03/01 05:15:21;;;;;;;8.10;5.90;;;;;;;4.25;47.69;101282.96;117287;1182;23635;-54
2022/03/01 05:17:50;;;;;;;10.80;6.00;;;;;;;4.25;47.74;101286.40;117177;1185;21861;-57
2022/03/01 05:20:18;;;;;;;8.70;6.00;;;;;;;4.23;47.77;101290.19;117519;1185;21851;-56
2022/03/01 05:22:46;;;;;;;7.70;5.90;;;;;;;4.24;47.85;101290.56;117243;1186;23538;-56
2022/03/01 05:25:17;;;;;;;9.90;5.80;;;;;;;4.25;47.78;101297.89;117316;1186;23479;-53
2022/03/01 05:27:47;;;;;;;10.40;6.70;;;;;;;4.27;47.81;101299.48;117306;1186;23595;-56
2022/03/01 05:30:16;;;;;;;9.50;6.20;;;;;;;4.28;47.82;101300.58;117376;1182;21848;-56
2022/03/01 05:32:46;;;;;;;8.20;5.50;;;;;;;4.29;47.70;101296.44;117370;1185;23001;-56
2022/03/01 05:35:15;;;;;;;13.90;6.70;;;;;;;4.29;47.84;101295.75;117220;1183;22953;-56
2022/03/01 05:37:44;;;;;;;9.60;6.60;;;;;;;4.31;47.74;101305.02;117425;1183;22228;-55
2022/03/01 05:40:14;;;;;;;16.30;7.70;;;;;;;4.32;47.80;101302.24;117359;1186;22812;-56
2022/03/01 05:42:43;;;;;;;23.80;7.00;;;;;;;4.29;47.63;101288.10;117295;1186;21859;-56
2022/03/01 05:45:12;;;;;;;8.80;6.50;;;;;;;4.26;47.73;101288.70;117393;1186;23529;-57
2022/03/01 05:47:40;;;;;;;12.30;7.00;;;;;;;4.26;47.82;101294.95;117456;1182;21882;-53
2022/03/01 05:50:10;;;;;;;12.50;7.30;;;;;;;4.28;47.77;101295.36;118943;1184;23438;-53
2022/03/01 05:52:45;;;;;;;207.40;108.50;;;;;;;4.27;47.69;101298.64;117301;1183;23491;-53
2022/03/01 05:55:13;;;;;;;45.50;28.60;;;;;;;4.26;47.74;101296.52;117517;1185;22313;-53
2022/03/01 05:57:42;;;;;;;21.80;16.00;;;;;;;4.24;47.77;101295.44;117501;1182;22037;-53
2022/03/01 06:00:12;;;;;;;15.30;8.70;;;;;;;4.21;47.74;101296.20;117462;1182;23894;-56
2022/03/01 06:02:41;;;;;;;12.40;9.00;;;;;;;4.17;47.75;101298.90;117384;1182;23451;-56
2022/03/01 06:05:11;;;;;;;11.80;8.50;;;;;;;4.17;47.78;101302.38;117367;1184;21850;-57
2022/03/01 06:07:40;;;;;;;11.00;7.70;;;;;;;4.17;47.95;101297.85;117251;1185;21882;-54
2022/03/01 06:10:09;;;;;;;11.70;8.10;;;;;;;4.18;47.86;101300.12;117251;1182;21968;-53
2022/03/01 06:12:37;;;;;;;11.50;7.40;;;;;;;4.19;47.75;101303.09;117450;1186;22200;-56
2022/03/01 06:15:06;;;;;;;12.00;7.90;;;;;;;4.18;48.03;101305.69;117345;1184;21870;-53
2022/03/01 06:17:35;;;;;;;12.10;7.50;;;;;;;4.20;47.84;101302.11;117334;1185;22629;-57
2022/03/01 06:20:05;;;;;;;10.40;7.30;;;;;;;4.21;48.04;101298.48;117371;1186;23556;-56
2022/03/01 06:22:33;;;;;;;12.40;8.50;;;;;;;4.23;48.06;101298.00;117349;1186;23893;-56
2022/03/01 06:25:02;;;;;;;12.30;8.00;;;;;;;4.26;48.14;101297.75;117282;1186;22723;-54
2022/03/01 06:27:31;;;;;;;13.10;9.30;;;;;;;4.28;48.08;101303.73;117294;1185;22903;-52
2022/03/01 06:29:59;;;;;;;15.00;10.40;;;;;;;4.30;47.97;101303.08;117375;1185;21850;-53
2022/03/01 06:32:27;;;;;;;12.80;9.20;;;;;;;4.29;48.14;101301.48;117340;1182;21876;-53
2022/03/01 06:34:56;;;;;;;12.10;7.80;;;;;;;4.28;48.01;101304.08;117309;1185;23608;-55
2022/03/01 06:37:36;;;;;;;14.70;9.00;;;;;;;4.26;48.08;101305.89;117360;1182;21849;-54
2022/03/01 06:40:08;;;;;;;16.50;8.80;;;;;;;4.23;48.11;101307.58;117352;1182;21846;-55
2022/03/01 06:42:36;;;;;;;19.40;11.30;;;;;;;4.24;48.28;101310.55;117256;1183;22947;-56
2022/03/01 06:45:06;;;;;;;17.90;10.40;;;;;;;4.25;48.08;101307.78;117455;1183;21885;-56
2022/03/01 06:47:35;;;;;;;15.10;10.70;;;;;;;4.24;48.04;101311.77;117303;1182;21862;-56
2022/03/01 06:50:07;;;;;;;13.70;9.50;;;;;;;4.26;48.15;101314.26;117333;1181;21888;-56
2022/03/01 06:52:37;;;;;;;;;;;;;;;4.28;48.13;101310.66;117369;1182;21830;-54
2022/03/01 06:55:06;;;;;;;14.20;9.90;;;;;;;4.30;48.26;101312.80;117342;1185;21887;-56
2022/03/01 06:57:37;;;;;;;15.60;10.80;;;;;;;4.32;48.15;101309.55;117457;1185;21885;-54
2022/03/01 07:00:06;;;;;;;14.70;10.60;;;;;;;4.34;48.20;101304.92;117392;1182;23521;-56
2022/03/01 07:02:38;;;;;;;14.90;10.90;;;;;;;4.36;48.24;101308.27;117440;1183;22982;-54
2022/03/01 07:05:09;;;;;;;18.70;12.00;;;;;;;4.37;48.08;101308.30;117233;1185;21848;-54
2022/03/01 07:07:37;;;;;;;15.10;9.00;;;;;;;4.39;48.29;101306.27;117288;1184;21849;-55
2022/03/01 07:10:06;;;;;;;17.00;11.40;;;;;;;4.40;48.24;101308.05;117317;1183;23581;-54
2022/03/01 07:12:34;;;;;;;18.80;13.00;;;;;;;4.41;48.18;101306.16;117354;1183;23557;-56
2022/03/01 07:15:04;;;;;;;21.20;13.50;;;;;;;4.43;48.35;101304.12;117392;1182;22921;-56
2022/03/01 07:17:34;;;;;;;24.90;14.20;;;;;;;4.42;48.31;101301.15;117406;1182;21860;-53
2022/03/01 07:20:03;;;;;;;18.90;12.90;;;;;;;4.41;48.09;101300.60;117334;1182;21899;-55
2022/03/01 07:22:31;;;;;;;20.30;14.20;;;;;;;4.41;48.25;101297.66;117334;1182;21843;-54
2022/03/01 07:25:00;;;;;;;24.20;14.30;;;;;;;4.40;48.35;101298.33;117336;1185;21864;-56
2022/03/01 07:27:28;;;;;;;23.70;15.90;;;;;;;4.39;48.29;101297.08;117296;1184;23510;-53
2022/03/01 07:29:57;;;;;;;24.80;16.30;;;;;;;4.38;48.30;101298.61;117303;1186;21914;-56
2022/03/01 07:32:25;;;;;;;24.50;17.00;;;;;;;4.38;48.50;101299.63;117281;1183;21871;-56
2022/03/01 07:34:53;;;;;;;22.60;15.40;;;;;;;4.38;48.24;101300.16;117315;1183;23593;-56
2022/03/01 07:37:24;;;;;;;23.30;16.20;;;;;;;4.38;48.39;101301.38;117366;1184;23644;-54
2022/03/01 07:39:55;;;;;;;24.80;16.20;;;;;;;4.38;48.51;101300.34;117449;1183;24155;-54
2022/03/01 07:42:23;;;;;;;21.90;14.60;;;;;;;4.38;48.42;101295.66;117461;1182;21842;-56
2022/03/01 07:44:52;;;;;;;24.40;15.50;;;;;;;4.39;48.46;101297.23;117319;1180;23523;-55
2022/03/01 07:47:20;;;;;;;21.00;14.40;;;;;;;4.39;48.53;101296.72;117409;1183;23610;-56
2022/03/01 07:49:50;;;;;;;19.80;13.50;;;;;;;4.38;48.61;101295.48;117228;1185;21880;-55
2022/03/01 07:52:18;;;;;;;21.10;13.80;;;;;;;4.34;48.57;101295.71;118253;1185;21893;-53
2022/03/01 07:54:47;;;;;;;19.00;13.00;;;;;;;4.31;48.58;101293.36;117303;1181;21933;-54
2022/03/01 07:57:16;;;;;;;19.60;13.20;;;;;;;4.29;48.55;101292.45;117371;1183;23597;-55
2022/03/01 07:59:44;;;;;;;18.30;12.10;;;;;;;4.32;48.60;101291.65;117373;1182;21849;-52
2022/03/01 08:02:12;;;;;;;17.20;12.60;;;;;;;4.32;48.54;101286.45;117630;1182;22612;-55
2022/03/01 08:04:42;;;;;;;17.10;11.70;;;;;;;4.31;48.51;101285.20;117629;1182;21900;-55
2022/03/01 08:07:11;;;;;;;16.40;10.70;;;;;;;4.32;48.57;101287.67;117405;1182;22831;-53
2022/03/01 08:09:39;;;;;;;17.60;11.60;;;;;;;4.34;48.51;101285.79;117374;1183;21845;-55
2022/03/01 08:12:08;;;;;;;15.40;11.00;;;;;;;4.30;48.58;101281.71;117478;1183;23587;-56
2022/03/01 08:14:37;;;;;;;17.20;11.40;;;;;;;4.33;48.53;101286.11;117341;1185;21902;-54
2022/03/01 08:17:05;;;;;;;17.30;10.10;;;;;;;4.37;48.77;101286.25;117381;1183;21849;-52
2022/03/01 08:19:54;;;;;;;17.70;11.50;;;;;;;4.38;48.51;101281.94;117259;1185;21931;-56
2022/03/01 08:22:22;;;;;;;16.30;11.80;;;;;;;4.38;48.74;101281.92;117432;1181;21856;-56
2022/03/01 08:24:50;;;;;;;24.60;12.10;;;;;;;4.35;48.85;101282.73;117471;1183;23469;-52
2022/03/01 08:27:19;;;;;;;14.50;10.80;;;;;;;4.31;48.73;101285.39;117351;1183;23431;-52
2022/03/01 08:29:47;;;;;;;17.40;11.40;;;;;;;4.28;48.70;101285.46;117301;1184;21871;-52
2022/03/01 08:32:15;;;;;;;17.00;11.50;;;;;;;4.26;48.75;101285.20;117329;1182;23455;-56
2022/03/01 08:34:43;;;;;;;18.00;11.00;;;;;;;4.24;48.82;101287.09;117321;1182;22811;-52
2022/03/01 08:37:12;;;;;;;17.10;11.80;;;;;;;4.21;48.75;101286.30;117361;1182;23598;-56
2022/03/01 08:39:40;;;;;;;17.10;11.60;;;;;;;4.21;48.91;101286.13;117346;1182;22616;-51
2022/03/01 08:42:08;;;;;;;14.40;10.40;;;;;;;4.23;48.94;101282.88;117365;1181;21855;-55
2022/03/01 08:44:37;;;;;;;18.90;13.90;;;;;;;4.25;48.95;101286.06;117266;1182;21880;-52
2022/03/01 08:47:05;;;;;;;20.20;13.40;;;;;;;4.26;49.00;101281.76;117322;1185;23406;-51
2022/03/01 08:49:33;;;;;;;16.60;11.90;;;;;;;4.26;48.92;101277.77;117303;1185;22851;-52
2022/03/01 08:52:02;;;;;;;18.20;12.00;;;;;;;4.30;49.01;101279.28;117492;1182;21839;-56
2022/03/01 08:54:31;;;;;;;16.00;10.30;;;;;;;4.34;48.99;101276.77;117387;1185;21905;-56
2022/03/01 08:57:01;;;;;;;17.10;11.70;;;;;;;4.37;48.91;101272.70;117385;1185;22922;-53
2022/03/01 08:59:29;;;;;;;16.20;11.00;;;;;;;4.42;48.92;101271.77;117279;1182;21840;-53
2022/03/01 09:01:58;;;;;;;16.80;11.20;;;;;;;4.43;48.82;101267.96;117292;1182;22898;-56
2022/03/01 09:04:26;;;;;;;17.50;11.20;;;;;;;4.42;49.11;101265.51;117313;1185;23576;-56
2022/03/01 09:06:55;;;;;;;13.10;9.30;;;;;;;4.42;48.97;101265.51;117294;1183;21880;-53
2022/03/01 09:09:23;;;;;;;19.90;11.60;;;;;;;4.43;48.95;101267.80;117309;1183;21874;-53
2022/03/01 09:11:51;;;;;;;15.30;9.90;;;;;;;4.46;49.02;101261.27;117208;1181;21994;-53
2022/03/01 09:14:20;;;;;;;15.20;10.40;;;;;;;4.47;48.90;101259.40;117279;1185;21891;-53
2022/03/01 09:16:48;;;;;;;15.40;9.50;;;;;;;4.48;48.96;101257.86;117414;1185;22797;-53
2022/03/01 09:19:16;;;;;;;15.70;10.70;;;;;;;4.50;49.03;101255.98;117293;1182;21850;-53
2022/03/01 09:21:45;;;;;;;16.80;10.70;;;;;;;4.48;49.09;101253.67;117324;1182;23505;-53
2022/03/01 09:24:13;;;;;;;18.90;10.90;;;;;;;4.50;49.18;101260.34;117322;1185;21861;-56
2022/03/01 09:26:41;;;;;;;20.90;10.20;;;;;;;4.56;49.26;101257.73;117333;1185;21866;-56
2022/03/01 09:29:15;;;;;;;61.00;13.80;;;;;;;4.61;49.31;101257.88;117295;1185;21890;-56
2022/03/01 09:31:44;;;;;;;24.00;10.90;;;;;;;4.66;49.55;101256.42;117371;1186;23381;-55
2022/03/01 09:34:12;;;;;;;38.60;10.20;;;;;;;4.71;49.36;101256.20;117316;1185;21864;-55
2022/03/01 09:36:41;;;;;;;32.30;12.50;;;;;;;4.77;49.59;101253.56;117332;1185;21958;-55
2022/03/01 09:39:09;;;;;;;25.50;10.40;;;;;;;4.84;49.39;101252.89;117290;1182;21849;-55
2022/03/01 09:41:38;;;;;;;51.00;12.10;;;;;;;4.87;49.36;101252.61;117253;1181;23618;-56
2022/03/01 09:44:06;;;;;;;21.50;8.90;;;;;;;4.90;49.32;101254.92;117349;1182;22954;-55
2022/03/01 09:46:38;;;;;;;21.90;9.80;;;;;;;4.90;49.58;101247.81;117254;1185;23671;-55
2022/03/01 09:49:08;;;;;;;27.70;11.10;;;;;;;4.90;49.50;101242.92;117325;1182;21967;-56
2022/03/01 09:51:37;;;;;;;19.30;10.00;;;;;;;4.91;49.33;101237.39;117380;1185;21863;-55
2022/03/01 09:54:05;;;;;;;19.80;10.10;;;;;;;4.94;49.49;101236.58;117371;1181;22923;-55
2022/03/01 09:56:36;;;;;;;15.10;10.20;;;;;;;4.95;49.58;101238.01;117296;1186;21850;-55
2022/03/01 09:59:05;;;;;;;19.60;12.70;;;;;;;4.95;49.49;101236.08;117341;1184;21849;-53
2022/03/01 10:01:37;;;;;;;28.70;13.50;;;;;;;4.92;49.21;101235.85;117257;1182;23638;-53
2022/03/01 10:04:08;;;;;;;22.70;14.00;;;;;;;4.91;49.47;101236.17;117335;1186;23410;-54
2022/03/01 10:06:40;;;;;;;27.90;14.40;;;;;;;4.89;49.37;101234.23;117348;1184;22082;-53
2022/03/01 10:09:29;;;;;;;20.90;13.80;;;;;;;4.88;49.39;101234.01;117292;1182;23464;-57
2022/03/01 10:12:03;;;;;;;23.70;16.10;;;;;;;4.86;49.47;101233.45;117254;1182;21846;-56
2022/03/01 10:14:33;;;;;;;18.80;13.30;;;;;;;4.86;49.53;101230.31;117261;1182;21852;-53
2022/03/01 10:17:16;;;;;;;17.20;11.60;;;;;;;4.88;49.74;101230.17;117319;1182;21893;-53
2022/03/01 10:19:44;;;;;;;16.20;10.80;;;;;;;4.84;49.44;101223.31;117250;1185;23432;-54
2022/03/01 10:22:20;;;;;;;17.10;12.20;;;;;;;4.83;49.62;101222.59;117288;1176;21860;-57
2022/03/01 10:24:48;;;;;;;20.80;15.50;;;;;;;4.83;49.38;101221.90;117405;1184;22837;-57
2022/03/01 10:27:26;;;;;;;25.20;16.80;;;;;;;4.81;49.50;101218.73;117414;1185;21851;-55
2022/03/01 10:29:54;;;;;;;27.70;17.40;;;;;;;4.79;49.42;101219.87;117219;1184;22530;-54
2022/03/01 10:32:24;;;;;;;21.10;14.70;;;;;;;4.76;49.57;101215.11;117304;1185;22657;-56
2022/03/01 10:35:05;;;;;;;19.70;13.90;;;;;;;4.75;49.44;101212.83;117311;1182;23550;-57
2022/03/01 10:37:35;;;;;;;19.70;13.50;;;;;;;4.75;49.52;101207.98;117293;1185;22639;-54
2022/03/01 10:40:16;;;;;;;20.50;13.50;;;;;;;4.76;49.70;101202.78;117259;1185;22976;-57
2022/03/01 10:43:01;;;;;;;17.60;11.90;;;;;;;4.76;49.60;101195.98;117302;1180;23534;-55
2022/03/01 10:45:40;;;;;;;20.00;12.60;;;;;;;4.81;49.56;101192.80;117298;1182;22913;-55
2022/03/01 10:48:12;;;;;;;16.90;10.80;;;;;;;4.88;49.85;101189.67;117301;1181;22937;-55
2022/03/01 10:50:40;;;;;;;16.40;11.60;;;;;;;4.92;49.74;101184.71;117249;1185;23677;-57
2022/03/01 10:53:08;;;;;;;24.30;13.60;;;;;;;4.94;49.78;101184.59;116985;1185;23532;-52
2022/03/01 10:55:41;;;;;;;18.60;12.00;;;;;;;4.97;49.82;101178.24;117301;1182;23468;-54
2022/03/01 10:58:14;;;;;;;20.00;13.70;;;;;;;5.04;49.78;101174.23;117336;1185;23493;-54
2022/03/01 11:00:43;;;;;;;19.70;13.00;;;;;;;5.05;49.83;101169.73;117319;1182;23665;-53
2022/03/01 11:03:11;;;;;;;19.90;13.20;;;;;;;5.04;49.58;101168.65;117336;1185;23517;-56
2022/03/01 11:05:41;;;;;;;20.70;14.20;;;;;;;5.04;49.90;101164.64;117356;1183;23446;-54
2022/03/01 11:08:48;;;;;;;19.00;13.50;;;;;;;5.02;49.77;101159.91;117233;1185;21844;-54
2022/03/01 11:11:17;;;;;;;24.10;14.30;;;;;;;4.99;49.89;101159.16;117384;1185;23436;-56
2022/03/01 11:13:46;;;;;;;21.30;13.90;;;;;;;4.98;49.70;101154.95;117244;1185;21860;-56
2022/03/01 11:16:40;;;;;;;18.20;12.90;;;;;;;4.98;49.70;101153.20;117280;1185;21853;-54
2022/03/01 11:19:51;;;;;;;22.50;14.60;;;;;;;5.00;49.81;101152.91;117383;1186;21858;-56
2022/03/01 11:22:20;;;;;;;19.30;14.20;;;;;;;5.00;50.02;101152.05;117339;1183;21850;-56
2022/03/01 11:24:48;;;;;;;19.50;13.20;;;;;;;4.98;49.72;101145.04;117363;1182;21867;-53
2022/03/01 11:27:24;;;;;;;19.90;13.40;;;;;;;5.00;50.05;101141.42;117336;1183;22840;-56
2022/03/01 11:30:03;;;;;;;19.60;13.40;;;;;;;5.00;49.89;101134.13;117292;1182;21902;-56